Time;durP1;ratioP1;P1;durP2;ratioP2;P2;SDS_P1;SDS_P2;PMS_P1;PMS_P2;Temp;Humidity;BMP_temperature;BMP_pressure;BME280_temperature;BME280_humidity;BME280_pressure;Samples;Min_cycle;Max_cycle;Signal;HPM_P1;HPM_P2
2023/09/22 00:00:53;;;;;;;3.30;3.03;;;;;;;14.08;97.50;98697.69;10494227;28;20107;-77
2023/09/22 00:05:57;;;;;;;3.03;2.67;;;;;;;13.83;98.19;98689.88;10484833;28;20057;-77
2023/09/22 00:10:59;;;;;;;3.13;2.83;;;;;;;13.88;97.67;98702.84;10481768;28;20056;-76
2023/09/22 00:16:04;;;;;;;3.65;2.40;;;;;;;13.99;96.92;98701.50;10491821;28;20075;-76
2023/09/22 00:21:08;;;;;;;3.28;1.67;;;;;;;13.83;96.08;98700.69;10487856;28;20040;-76
2023/09/22 00:26:11;;;;;;;2.40;1.88;;;;;;;13.83;95.70;98707.94;10482452;28;20043;-76
2023/09/22 00:31:17;;;;;;;3.33;2.13;;;;;;;13.85;95.86;98711.28;10486323;28;20076;-76
2023/09/22 00:36:21;;;;;;;2.55;1.67;;;;;;;13.79;95.84;98706.63;10485324;28;20722;-76
2023/09/22 00:41:24;;;;;;;2.63;1.50;;;;;;;13.64;95.59;98707.47;10486845;28;20055;-76
2023/09/22 00:46:29;;;;;;;2.88;1.40;;;;;;;13.73;95.20;98712.78;10467414;28;20047;-77
2023/09/22 00:51:32;;;;;;;1.13;1.02;;;;;;;13.49;94.78;98712.00;10485747;28;20083;-77
2023/09/22 00:56:35;;;;;;;1.05;0.90;;;;;;;13.56;94.86;98721.03;10478556;28;20064;-76
2023/09/22 01:01:39;;;;;;;5.32;1.00;;;;;;;13.45;93.94;98735.81;10470001;28;20043;-76
2023/09/22 01:06:45;;;;;;;3.03;1.35;;;;;;;13.69;93.87;98728.50;10477844;28;20113;-76
2023/09/22 01:11:48;;;;;;;4.45;1.85;;;;;;;13.63;93.15;98721.13;10481340;28;20071;-76
2023/09/22 01:16:52;;;;;;;1.20;1.10;;;;;;;13.89;91.96;98709.91;10461333;28;20600;-77
2023/09/22 01:21:56;;;;;;;2.78;1.58;;;;;;;14.03;91.26;98706.34;10475239;28;20105;-76
2023/09/22 01:27:02;;;;;;;1.35;1.10;;;;;;;13.88;91.11;98733.34;10460270;28;21224;-77
2023/09/22 01:32:09;;;;;;;1.48;1.00;;;;;;;13.89;90.98;98740.41;10482177;28;20052;-76
2023/09/22 01:37:13;;;;;;;3.97;1.13;;;;;;;14.00;90.30;98730.19;10476810;28;20085;-76
2023/09/22 01:42:16;;;;;;;3.40;1.20;;;;;;;14.06;90.42;98718.63;10470143;28;20048;-77
2023/09/22 01:47:19;;;;;;;3.67;1.38;;;;;;;13.99;90.17;98733.88;10467936;28;20047;-76
2023/09/22 01:52:24;;;;;;;4.40;1.30;;;;;;;13.91;89.84;98745.63;10475622;28;20044;-76
2023/09/22 01:57:27;;;;;;;2.10;0.88;;;;;;;14.15;88.69;98744.50;10488465;28;20056;-76
2023/09/22 02:02:32;;;;;;;0.82;0.82;;;;;;;14.08;88.96;98770.59;10462519;28;20044;-76
2023/09/22 02:07:37;;;;;;;1.40;0.93;;;;;;;14.06;88.97;98791.53;10518281;28;20187;-76
2023/09/22 02:12:40;;;;;;;1.48;1.00;;;;;;;14.12;88.56;98797.03;10509808;28;20036;-76
2023/09/22 02:17:46;;;;;;;5.00;1.10;;;;;;;13.80;90.69;98775.78;10517604;28;20498;-76
2023/09/22 02:22:54;;;;;;;1.73;1.00;;;;;;;14.11;88.41;98749.44;10500034;28;20078;-77
2023/09/22 02:27:58;;;;;;;3.30;1.40;;;;;;;13.94;89.72;98766.84;10503896;28;20681;-77
2023/09/22 02:33:01;;;;;;;2.60;1.23;;;;;;;14.13;88.68;98765.47;10520371;28;20039;-77
2023/09/22 02:38:06;;;;;;;1.70;1.30;;;;;;;13.71;89.66;98786.66;10512445;28;20044;-77
2023/09/22 02:43:08;;;;;;;1.55;1.40;;;;;;;13.82;89.39;98779.97;10510972;28;20388;-76
2023/09/22 02:48:11;;;;;;;1.70;1.30;;;;;;;13.99;88.76;98769.84;10497942;28;20118;-77
2023/09/22 02:53:16;;;;;;;3.42;1.98;;;;;;;13.68;89.81;98754.63;10510110;28;20064;-77
2023/09/22 02:58:18;;;;;;;4.82;1.73;;;;;;;13.84;89.61;98753.63;10516210;28;20411;-77
2023/09/22 03:03:21;;;;;;;2.58;1.50;;;;;;;13.98;88.52;98762.75;10515313;28;20043;-76
2023/09/22 03:08:26;;;;;;;2.00;1.83;;;;;;;13.84;89.20;98768.97;10508078;28;20067;-76
2023/09/22 03:13:29;;;;;;;2.03;1.83;;;;;;;13.42;90.53;98770.41;10503132;28;20090;-76
2023/09/22 03:18:31;;;;;;;4.65;2.42;;;;;;;13.64;90.07;98774.91;10504348;28;20044;-76
2023/09/22 03:23:36;;;;;;;4.00;2.13;;;;;;;13.91;88.60;98786.13;10500038;28;20050;-76
2023/09/22 03:28:39;;;;;;;2.70;2.38;;;;;;;13.99;88.52;98790.56;10509701;28;20422;-76
2023/09/22 03:33:41;;;;;;;5.05;3.00;;;;;;;14.01;87.89;98785.84;10516232;28;20036;-76
2023/09/22 03:38:46;;;;;;;4.13;3.10;;;;;;;14.09;87.22;98773.06;10505679;28;20033;-76
2023/09/22 03:43:49;;;;;;;3.22;2.92;;;;;;;14.00;86.83;98774.22;10497553;28;20050;-76
2023/09/22 03:48:52;;;;;;;4.07;2.70;;;;;;;13.93;87.56;98801.13;10501516;28;20048;-76
2023/09/22 03:53:57;;;;;;;4.88;2.83;;;;;;;14.08;87.28;98822.72;10509181;28;20410;-76
2023/09/22 03:59:00;;;;;;;4.22;3.35;;;;;;;14.12;86.80;98820.47;10499949;28;20499;-76
2023/09/22 04:04:04;;;;;;;3.38;3.08;;;;;;;13.91;87.36;98829.31;10508797;28;20430;-76
2023/09/22 04:09:09;;;;;;;3.30;2.63;;;;;;;13.87;86.42;98844.19;10496415;28;20885;-76
2023/09/22 04:14:13;;;;;;;3.70;3.13;;;;;;;14.04;86.06;98834.91;10488500;28;20957;-76
2023/09/22 04:19:17;;;;;;;3.30;2.65;;;;;;;14.10;85.98;98817.13;10492539;28;20040;-77
2023/09/22 04:24:21;;;;;;;3.38;3.05;;;;;;;14.03;87.05;98810.78;10496035;28;20036;-76
2023/09/22 04:29:25;;;;;;;3.95;3.55;;;;;;;13.96;87.41;98855.72;10512877;28;20111;-76
2023/09/22 04:34:28;;;;;;;5.03;4.15;;;;;;;13.01;89.17;98894.66;10517104;28;20036;-76
2023/09/22 04:39:32;;;;;;;6.28;3.63;;;;;;;13.64;86.54;98863.09;10521471;28;20079;-76
2023/09/22 04:44:36;;;;;;;4.07;3.40;;;;;;;13.68;85.98;98862.53;10513708;28;20093;-76
2023/09/22 04:49:39;;;;;;;4.28;3.88;;;;;;;13.35;86.90;98871.88;10520667;28;20032;-76
2023/09/22 04:54:43;;;;;;;7.32;3.97;;;;;;;13.30;87.01;98858.09;10522904;28;20082;-77
2023/09/22 04:59:47;;;;;;;6.47;3.92;;;;;;;13.68;85.27;98877.91;10523041;28;20045;-76
2023/09/22 05:04:49;;;;;;;7.88;5.55;;;;;;;13.90;83.98;98893.25;10505675;28;20521;-76
2023/09/22 05:09:54;;;;;;;7.30;4.22;;;;;;;13.88;84.54;98880.97;10522352;28;20040;-77
2023/09/22 05:14:58;;;;;;;6.72;4.45;;;;;;;13.82;85.07;98879.81;10527589;28;20064;-76
2023/09/22 05:20:03;;;;;;;5.35;3.63;;;;;;;13.99;84.81;98876.94;10534055;28;20059;-77
2023/09/22 05:25:09;;;;;;;5.00;3.78;;;;;;;13.93;84.33;98874.00;10529746;28;20050;-77
2023/09/22 05:30:13;;;;;;;4.55;3.95;;;;;;;13.69;84.70;98883.13;10527931;28;20048;-77
2023/09/22 05:35:16;;;;;;;5.40;3.63;;;;;;;13.48;85.77;98883.78;10528644;28;20056;-77
2023/09/22 05:40:21;;;;;;;8.50;3.80;;;;;;;13.57;84.96;98916.09;10529746;28;20105;-77
2023/09/22 05:45:24;;;;;;;3.70;3.00;;;;;;;13.60;85.00;98922.00;10531008;28;20046;-77
2023/09/22 05:50:28;;;;;;;6.03;3.40;;;;;;;13.57;85.04;98934.97;10524886;28;20036;-77
2023/09/22 05:55:33;;;;;;;5.13;2.95;;;;;;;13.68;84.41;98938.09;10524426;28;20044;-77
2023/09/22 06:00:36;;;;;;;4.72;2.90;;;;;;;13.65;84.49;98924.97;10526024;28;20043;-76
2023/09/22 06:05:42;;;;;;;5.75;3.05;;;;;;;13.65;84.46;98932.22;10540483;28;20040;-77
2023/09/22 06:10:46;;;;;;;6.47;3.03;;;;;;;13.68;84.63;98958.84;10527262;28;20048;-77
2023/09/22 06:15:51;;;;;;;3.58;3.13;;;;;;;13.81;84.18;98963.66;10521882;28;20046;-77
2023/09/22 06:20:55;;;;;;;4.28;3.58;;;;;;;13.54;83.88;98973.09;10514661;28;20047;-77
2023/09/22 06:26:03;;;;;;;7.70;4.55;;;;;;;13.61;83.44;98974.91;10482205;28;20044;-78
2023/09/22 06:31:06;;;;;;;6.75;4.20;;;;;;;13.69;82.96;98980.25;10485906;28;20055;-77
2023/09/22 06:36:09;;;;;;;3.75;3.45;;;;;;;13.71;82.67;98971.97;10487012;28;20048;-77
2023/09/22 06:41:17;;;;;;;5.82;3.25;;;;;;;13.89;81.01;98947.41;10486910;28;20045;-77
2023/09/22 06:46:20;;;;;;;4.57;3.45;;;;;;;13.83;80.37;98951.66;10483268;28;20517;-76
2023/09/22 06:51:23;;;;;;;4.70;2.70;;;;;;;13.55;80.34;98959.44;10487008;28;20467;-77
2023/09/22 06:56:27;;;;;;;4.55;2.40;;;;;;;13.55;79.63;98967.53;10485892;28;20048;-77
2023/09/22 07:01:50;;;;;;;6.47;2.58;;;;;;;13.46;79.88;98972.13;10472357;28;20119;-76
2023/09/22 07:06:53;;;;;;;6.18;2.13;;;;;;;13.75;79.33;98976.00;10489612;28;20055;-76
2023/09/22 07:11:57;;;;;;;3.33;2.20;;;;;;;13.82;77.91;98966.19;10498218;28;20056;-76
2023/09/22 07:17:00;;;;;;;4.30;1.88;;;;;;;14.03;76.59;98970.06;10488534;28;20057;-76
2023/09/22 07:22:03;;;;;;;5.95;1.70;;;;;;;14.18;76.07;98973.66;10483087;28;20521;-76
2023/09/22 07:27:08;;;;;;;2.45;2.00;;;;;;;13.91;77.40;98993.94;10486100;28;20045;-76
2023/09/22 07:32:11;;;;;;;5.25;1.65;;;;;;;13.78;77.80;98996.41;10477756;28;20044;-76
2023/09/22 07:37:14;;;;;;;6.25;1.67;;;;;;;13.71;78.40;99009.75;10467143;28;20064;-76
2023/09/22 07:42:27;;;;;;;4.05;2.00;;;;;;;13.87;78.14;99020.44;10474069;28;20064;-76
2023/09/22 07:47:30;;;;;;;4.90;2.28;;;;;;;13.96;77.66;99053.66;10486970;28;20051;-76
2023/09/22 07:52:33;;;;;;;2.38;1.45;;;;;;;14.67;75.55;99045.31;10489787;28;20419;-76
2023/09/22 07:57:38;;;;;;;2.67;1.48;;;;;;;15.15;72.49;99033.19;10484981;28;21131;-77
2023/09/22 08:02:41;;;;;;;4.55;1.65;;;;;;;15.37;71.46;99038.69;10488680;28;20615;-77
2023/09/22 08:07:46;;;;;;;5.53;1.33;;;;;;;15.41;71.39;99032.72;10480842;28;20094;-77
2023/09/22 08:12:50;;;;;;;4.53;1.15;;;;;;;14.90;73.59;99026.38;10489129;28;20047;-77
2023/09/22 08:17:53;;;;;;;1.90;1.08;;;;;;;14.69;74.02;99041.41;10473862;28;20418;-77
2023/09/22 08:22:58;;;;;;;3.95;1.10;;;;;;;15.02;72.92;99044.63;10490744;28;20047;-76
2023/09/22 08:28:02;;;;;;;2.90;1.00;;;;;;;14.98;73.18;99047.91;10483375;28;20518;-76
2023/09/22 08:33:07;;;;;;;3.78;0.98;;;;;;;15.78;69.04;99049.00;10486973;28;21116;-76
2023/09/22 08:38:10;;;;;;;2.67;0.90;;;;;;;15.45;70.02;99066.50;10487743;28;20411;-76
2023/09/22 08:43:15;;;;;;;1.85;0.93;;;;;;;15.89;68.87;99057.44;10489307;28;20064;-77
2023/09/22 08:48:18;;;;;;;3.30;0.88;;;;;;;15.71;69.30;99051.59;10490941;28;20044;-76
2023/09/22 08:53:21;;;;;;;1.75;0.75;;;;;;;16.01;68.15;99070.47;10478359;28;20048;-76
2023/09/22 08:58:26;;;;;;;2.88;0.75;;;;;;;16.34;68.28;99068.16;10494235;28;20537;-76
2023/09/22 09:03:31;;;;;;;1.67;0.65;;;;;;;16.51;66.01;99066.88;10494404;28;20699;-76
2023/09/22 09:08:35;;;;;;;2.30;0.70;;;;;;;16.21;67.05;99068.84;10485777;28;20123;-77
2023/09/22 09:13:39;;;;;;;3.03;0.70;;;;;;;15.69;68.90;99072.63;10482262;28;20048;-76
2023/09/22 09:18:42;;;;;;;2.15;0.80;;;;;;;16.40;65.50;99053.84;10485731;28;20051;-75
2023/09/22 09:23:52;;;;;;;2.10;1.05;;;;;;;16.33;66.58;99064.59;10487894;28;20753;-76
2023/09/22 09:28:58;;;;;;;1.90;0.90;;;;;;;16.12;66.80;99043.72;10500876;28;21053;-76
2023/09/22 09:34:01;;;;;;;1.05;0.80;;;;;;;15.86;67.12;99047.00;10488764;28;20055;-76
2023/09/22 09:39:04;;;;;;;2.60;0.82;;;;;;;16.21;65.81;99049.88;10490929;28;20567;-76
2023/09/22 09:44:09;;;;;;;3.65;0.88;;;;;;;17.00;63.66;99063.28;10488544;28;20040;-76
2023/09/22 09:49:13;;;;;;;1.75;0.82;;;;;;;16.76;64.50;99064.56;10488266;28;20137;-77
2023/09/22 09:54:20;;;;;;;3.60;0.68;;;;;;;17.57;62.96;99068.66;10490313;28;20133;-76
2023/09/22 09:59:25;;;;;;;5.18;0.70;;;;;;;17.15;62.85;99052.34;10492004;28;20052;-76
2023/09/22 10:04:29;;;;;;;2.13;0.70;;;;;;;17.79;59.67;99059.34;10494256;28;20478;-76
2023/09/22 10:09:32;;;;;;;0.98;0.52;;;;;;;16.95;61.14;99057.63;10496100;28;20048;-76
2023/09/22 10:14:51;;;;;;;1.23;0.60;;;;;;;16.89;60.34;99071.13;10499603;28;20055;-76
2023/09/22 10:19:54;;;;;;;2.22;0.70;;;;;;;16.91;60.50;99072.59;10506164;28;20058;-76
2023/09/22 10:25:23;;;;;;;2.28;0.70;;;;;;;16.83;61.62;99063.78;10497128;28;20060;-76
2023/09/22 10:31:08;;;;;;;0.82;0.60;;;;;;;16.85;61.07;99078.81;10501882;28;20778;-77
2023/09/22 10:36:14;;;;;;;2.70;0.50;;;;;;;17.36;59.33;99075.88;10413289;28;20043;-77
2023/09/22 10:41:17;;;;;;;1.52;0.63;;;;;;;16.96;60.68;99075.56;10483339;28;20463;-76
2023/09/22 10:46:22;;;;;;;3.13;0.68;;;;;;;18.62;57.15;99074.59;10489069;28;20045;-76
2023/09/22 10:51:43;;;;;;;1.55;0.40;;;;;;;20.26;52.76;99060.75;10488748;28;20230;-76
2023/09/22 10:56:46;;;;;;;1.40;0.68;;;;;;;17.92;56.33;99072.13;10487116;28;20118;-76
2023/09/22 11:01:50;;;;;;;1.70;1.13;;;;;;;17.09;58.72;99074.81;10459067;28;20418;-76
2023/09/22 11:06:53;;;;;;;2.97;0.70;;;;;;;17.40;58.56;99082.56;10453884;28;20044;-76
2023/09/22 11:11:56;;;;;;;2.63;0.52;;;;;;;17.10;59.83;99087.34;10487580;28;20055;-76
2023/09/22 11:17:00;;;;;;;2.15;0.80;;;;;;;16.33;60.53;99083.56;10490334;28;20053;-76
2023/09/22 11:22:03;;;;;;;1.30;0.50;;;;;;;16.72;58.38;99093.09;10487840;28;20083;-76
2023/09/22 11:27:06;;;;;;;3.03;0.70;;;;;;;17.07;58.07;99103.19;10485784;28;20119;-75
2023/09/22 11:32:12;;;;;;;1.05;0.50;;;;;;;19.11;52.63;99100.53;10479670;28;20755;-76
2023/09/22 11:37:16;;;;;;;2.17;0.57;;;;;;;17.53;59.20;99105.41;10466406;28;20051;-76
2023/09/22 11:42:20;;;;;;;1.17;0.55;;;;;;;17.44;59.18;99105.56;10484657;28;20104;-76
2023/09/22 11:47:25;;;;;;;4.45;0.90;;;;;;;17.37;59.70;99110.09;10485972;28;20048;-76
2023/09/22 11:52:29;;;;;;;1.85;0.70;;;;;;;17.57;58.87;99110.19;10471998;28;20047;-76
2023/09/22 11:57:32;;;;;;;3.03;0.68;;;;;;;18.02;57.58;99112.50;10485439;28;20534;-75
2023/09/22 12:02:36;;;;;;;2.83;1.00;;;;;;;19.70;52.70;99115.97;10489986;28;20229;-76
2023/09/22 12:07:39;;;;;;;2.90;0.95;;;;;;;20.67;49.07;99108.53;10488619;28;20043;-75
2023/09/22 12:12:42;;;;;;;0.98;0.63;;;;;;;18.40;53.37;99123.69;10482408;28;20050;-76
2023/09/22 12:17:46;;;;;;;1.60;0.70;;;;;;;17.77;53.35;99118.47;10487856;28;20046;-76
2023/09/22 12:22:49;;;;;;;2.05;0.57;;;;;;;18.42;52.19;99112.63;10487070;28;20054;-76
2023/09/22 12:27:53;;;;;;;0.65;0.40;;;;;;;19.10;49.50;99120.66;10484906;28;20446;-76
2023/09/22 12:32:57;;;;;;;1.30;0.60;;;;;;;20.33;47.55;99101.66;10485829;28;21435;-76
2023/09/22 12:38:00;;;;;;;1.33;0.65;;;;;;;21.56;43.54;99106.50;10495904;28;20055;-76
2023/09/22 12:43:03;;;;;;;2.42;0.90;;;;;;;23.09;42.15;99112.59;10483926;28;20179;-76
2023/09/22 12:48:07;;;;;;;1.58;0.65;;;;;;;22.74;42.11;99101.59;10472142;28;20056;-76
2023/09/22 12:53:11;;;;;;;2.05;0.68;;;;;;;23.81;39.90;99098.66;10477376;28;20040;-76
2023/09/22 12:58:13;;;;;;;1.13;0.55;;;;;;;19.78;45.82;99107.53;10480233;28;20041;-76
2023/09/22 13:03:18;;;;;;;1.95;0.50;;;;;;;18.82;47.56;99116.28;10479389;28;20050;-75
2023/09/22 13:08:21;;;;;;;2.42;0.57;;;;;;;19.36;47.30;99106.16;10481020;28;20056;-76
2023/09/22 13:13:24;;;;;;;1.08;0.63;;;;;;;19.46;47.34;99101.94;10476892;28;20052;-77
2023/09/22 13:18:29;;;;;;;1.27;0.52;;;;;;;22.71;41.07;99089.22;10471141;28;20040;-76
2023/09/22 13:23:31;;;;;;;2.03;0.90;;;;;;;25.47;37.46;99087.56;10472746;28;20074;-77
2023/09/22 13:28:35;;;;;;;1.25;0.55;;;;;;;23.20;41.08;99081.69;10484442;28;20052;-77
2023/09/22 13:33:39;;;;;;;2.38;0.75;;;;;;;24.06;38.77;99084.63;10472544;28;20115;-76
2023/09/22 13:38:42;;;;;;;2.05;0.90;;;;;;;22.66;40.97;99083.63;10481545;28;20056;-76
2023/09/22 13:43:45;;;;;;;0.82;0.55;;;;;;;22.15;42.02;99076.75;10485171;28;20052;-75
2023/09/22 13:48:50;;;;;;;1.60;0.90;;;;;;;23.90;39.37;99057.97;10490838;28;20052;-76
2023/09/22 13:53:53;;;;;;;1.35;0.80;;;;;;;24.57;38.02;99064.69;10493113;28;20049;-76
2023/09/22 13:58:58;;;;;;;2.22;1.35;;;;;;;22.24;40.49;99067.19;10491813;28;20106;-77
2023/09/22 14:04:03;;;;;;;0.80;0.70;;;;;;;19.84;45.77;99078.59;10491884;28;20082;-77
2023/09/22 14:09:06;;;;;;;2.47;0.65;;;;;;;18.84;48.10;99089.69;10491599;28;20048;-76
2023/09/22 14:14:09;;;;;;;0.90;0.70;;;;;;;19.10;48.96;99098.88;10492965;28;20078;-77
2023/09/22 14:19:13;;;;;;;1.15;0.60;;;;;;;20.39;45.93;99089.03;10488538;28;20548;-76
2023/09/22 14:24:16;;;;;;;2.58;1.00;;;;;;;18.94;49.70;99106.41;10480834;28;20457;-76
2023/09/22 14:29:19;;;;;;;1.27;0.82;;;;;;;18.73;50.53;99095.72;10477203;28;20067;-77
2023/09/22 14:34:23;;;;;;;2.88;0.63;;;;;;;18.58;51.33;99109.53;10488929;28;20070;-76
2023/09/22 14:39:27;;;;;;;2.58;0.75;;;;;;;18.42;52.30;99110.75;10407957;28;79630;-76
2023/09/22 14:44:30;;;;;;;1.88;0.63;;;;;;;18.46;51.83;99111.19;10407248;28;20913;-76
2023/09/22 14:49:35;;;;;;;2.25;0.70;;;;;;;18.40;50.42;99114.72;10382477;28;20786;-77
2023/09/22 14:54:39;;;;;;;3.58;0.80;;;;;;;18.50;50.63;99121.41;10407849;28;20629;-76
2023/09/22 14:59:42;;;;;;;0.90;0.70;;;;;;;18.49;50.92;99127.91;10403262;28;20053;-76
2023/09/22 15:04:46;;;;;;;2.08;0.70;;;;;;;18.33;51.39;99120.97;10411363;28;20519;-76
2023/09/22 15:09:49;;;;;;;0.60;0.43;;;;;;;17.95;51.75;99127.94;10417373;28;20049;-76
2023/09/22 15:14:54;;;;;;;0.80;0.70;;;;;;;18.22;52.27;99126.19;10425716;28;20045;-76
2023/09/22 15:19:59;;;;;;;2.47;0.80;;;;;;;18.24;50.87;99137.66;10421228;28;20052;-77
2023/09/22 15:25:02;;;;;;;1.23;0.70;;;;;;;18.73;50.51;99137.38;10393413;28;20048;-76
2023/09/22 15:30:06;;;;;;;2.20;1.15;;;;;;;18.86;50.49;99133.00;10401872;28;20045;-75
2023/09/22 15:35:11;;;;;;;1.58;1.10;;;;;;;18.90;50.68;99124.22;10366941;28;20049;-76
2023/09/22 15:40:15;;;;;;;3.30;0.80;;;;;;;19.42;49.34;99117.06;10389718;28;20068;-76
2023/09/22 15:45:21;;;;;;;1.40;0.80;;;;;;;18.85;49.85;99128.63;10436461;28;20098;-77
2023/09/22 15:50:27;;;;;;;2.13;0.90;;;;;;;19.55;48.32;99127.06;10457641;28;20075;-76
2023/09/22 15:55:29;;;;;;;5.32;0.80;;;;;;;19.56;48.25;99138.84;10451102;28;20076;-76
2023/09/22 16:00:33;;;;;;;1.85;0.80;;;;;;;18.98;49.27;99151.22;10423125;28;20049;-76
2023/09/22 16:05:39;;;;;;;1.02;0.70;;;;;;;19.60;49.12;99140.91;10449040;28;21182;-75
2023/09/22 16:10:43;;;;;;;3.50;0.95;;;;;;;19.83;48.21;99140.44;10437969;28;20060;-76
2023/09/22 16:15:47;;;;;;;3.05;0.70;;;;;;;20.11;47.98;99142.84;10459963;28;20063;-76
2023/09/22 16:20:51;;;;;;;1.67;0.75;;;;;;;19.72;49.93;99152.00;10459773;28;21558;-76
2023/09/22 16:26:00;;;;;;;2.25;0.73;;;;;;;20.25;49.84;99153.69;10470533;28;20135;-76
2023/09/22 16:31:04;;;;;;;1.20;0.63;;;;;;;20.08;48.82;99162.34;10455605;28;20044;-76
2023/09/22 16:36:09;;;;;;;1.30;1.00;;;;;;;19.74;49.31;99166.22;10440667;28;20177;-76
2023/09/22 16:41:11;;;;;;;2.25;0.88;;;;;;;19.53;49.65;99164.59;10432937;28;20068;-76
2023/09/22 16:46:14;;;;;;;1.70;1.17;;;;;;;18.88;51.57;99164.41;10453860;28;20056;-76
2023/09/22 16:51:19;;;;;;;2.90;1.40;;;;;;;18.28;53.64;99182.44;10448145;28;20128;-76
2023/09/22 16:56:23;;;;;;;1.58;0.98;;;;;;;17.81;57.50;99165.91;10441447;28;20522;-76
2023/09/22 17:01:26;;;;;;;1.70;1.00;;;;;;;17.62;58.89;99172.06;10444905;28;20495;-76
2023/09/22 17:06:30;;;;;;;5.25;1.00;;;;;;;17.46;61.05;99168.59;10425067;28;20515;-76
2023/09/22 17:11:34;;;;;;;2.90;1.02;;;;;;;17.29;61.91;99163.69;10453564;28;20504;-76
2023/09/22 17:16:37;;;;;;;2.50;1.38;;;;;;;17.06;63.04;99158.47;10461262;28;20156;-76
2023/09/22 17:21:42;;;;;;;1.83;1.05;;;;;;;16.83;63.66;99161.41;10454956;28;20502;-76
2023/09/22 17:26:45;;;;;;;3.50;0.90;;;;;;;16.69;64.42;99168.56;10465287;28;20059;-76
2023/09/22 17:31:48;;;;;;;2.92;1.23;;;;;;;16.56;65.19;99163.84;10458246;28;20057;-77
2023/09/22 17:36:53;;;;;;;1.42;0.98;;;;;;;16.44;65.78;99160.81;10456007;28;20095;-76
2023/09/22 17:41:56;;;;;;;3.65;1.63;;;;;;;16.30;66.10;99170.66;10447741;28;20040;-76
2023/09/22 17:46:59;;;;;;;4.68;1.77;;;;;;;16.09;67.03;99179.53;10454995;28;20056;-77
2023/09/22 17:52:03;;;;;;;3.25;1.40;;;;;;;16.02;65.97;99175.94;10442821;28;20499;-76
2023/09/22 17:57:06;;;;;;;2.13;1.13;;;;;;;15.97;63.85;99177.53;10473352;28;20049;-77
2023/09/22 18:02:11;;;;;;;5.30;1.58;;;;;;;15.88;63.79;99183.03;10473716;28;21118;-76
2023/09/22 18:07:16;;;;;;;1.75;1.05;;;;;;;15.87;64.48;99186.75;10472354;28;20052;-76
2023/09/22 18:12:19;;;;;;;3.13;1.33;;;;;;;15.80;64.31;99179.59;10470508;28;20106;-77
2023/09/22 18:17:22;;;;;;;1.48;1.02;;;;;;;15.73;64.20;99187.63;10478525;28;20055;-76
2023/09/22 18:22:27;;;;;;;2.08;1.58;;;;;;;15.68;64.35;99193.56;10460768;28;20101;-76
2023/09/22 18:27:30;;;;;;;3.28;1.48;;;;;;;15.63;64.76;99190.63;10444223;28;20418;-76
2023/09/22 18:32:35;;;;;;;2.33;1.30;;;;;;;15.54;65.14;99199.81;10441518;28;20044;-76
2023/09/22 18:37:40;;;;;;;3.20;1.35;;;;;;;15.53;65.17;99198.16;10447262;28;20052;-76
2023/09/22 18:42:43;;;;;;;4.13;1.42;;;;;;;15.56;65.12;99207.78;10450117;28;20053;-77
2023/09/22 18:47:45;;;;;;;3.55;1.52;;;;;;;15.47;65.44;99202.44;10444330;28;20451;-76
2023/09/22 18:52:50;;;;;;;3.50;1.70;;;;;;;15.48;65.21;99197.88;10450289;28;20053;-76
2023/09/22 18:57:53;;;;;;;3.08;1.70;;;;;;;15.41;65.47;99202.31;10447569;28;20143;-76
2023/09/22 19:02:57;;;;;;;2.50;1.50;;;;;;;15.39;65.59;99207.09;10449120;28;20052;-77
2023/09/22 19:08:01;;;;;;;3.08;1.88;;;;;;;15.30;65.83;99203.56;10437714;28;20048;-77
2023/09/22 19:13:04;;;;;;;7.00;1.60;;;;;;;15.30;65.65;99208.16;10468779;28;20055;-77
2023/09/22 19:18:07;;;;;;;3.28;1.90;;;;;;;15.27;66.68;99221.00;10476427;28;21279;-77
2023/09/22 19:23:12;;;;;;;2.63;1.40;;;;;;;14.66;67.98;99254.44;10470764;28;20173;-76
2023/09/22 19:28:15;;;;;;;3.95;1.60;;;;;;;14.04;72.60;99257.91;10472193;28;20139;-78
2023/09/22 19:33:20;;;;;;;2.45;1.67;;;;;;;14.49;70.17;99253.72;10468305;28;20055;-77
2023/09/22 19:38:25;;;;;;;2.45;1.23;;;;;;;14.58;70.40;99248.06;10456711;28;20044;-76
2023/09/22 19:43:28;;;;;;;2.72;1.40;;;;;;;14.59;70.60;99260.56;10450057;28;20044;-77
2023/09/22 19:48:32;;;;;;;2.97;1.58;;;;;;;14.53;72.18;99261.25;10454663;28;20051;-77
2023/09/22 19:53:36;;;;;;;3.75;1.60;;;;;;;14.28;73.72;99263.22;10446288;28;20059;-78
2023/09/22 19:58:39;;;;;;;2.72;1.30;;;;;;;14.31;73.63;99264.72;10453942;28;20067;-76
2023/09/22 20:03:43;;;;;;;2.10;1.38;;;;;;;14.18;73.82;99272.53;10441628;28;20041;-76
2023/09/22 20:08:49;;;;;;;1.40;1.20;;;;;;;14.03;75.74;99258.94;10463177;28;20056;-77
2023/09/22 20:13:52;;;;;;;6.20;1.50;;;;;;;14.01;76.77;99259.09;10469261;28;20054;-76
2023/09/22 20:19:00;;;;;;;5.03;1.15;;;;;;;13.75;78.93;99267.47;10468979;28;20523;-78
2023/09/22 20:24:04;;;;;;;4.65;1.45;;;;;;;14.06;79.46;99269.38;10466317;28;20044;-77
2023/09/22 20:29:07;;;;;;;3.63;1.10;;;;;;;14.08;77.87;99265.50;10453916;28;20045;-79
2023/09/22 20:34:11;;;;;;;1.10;0.93;;;;;;;13.99;78.27;99274.66;10465789;28;20058;-77
2023/09/22 20:39:15;;;;;;;4.03;1.70;;;;;;;14.03;78.42;99269.75;10459528;28;20040;-77
2023/09/22 20:44:18;;;;;;;5.85;1.33;;;;;;;13.84;78.18;99262.88;10441225;28;20064;-76
2023/09/22 20:49:23;;;;;;;2.35;1.08;;;;;;;13.71;78.52;99266.09;10467852;28;20040;-77
2023/09/22 20:54:30;;;;;;;1.75;1.00;;;;;;;13.67;77.93;99275.56;10477836;28;20056;-77
2023/09/22 20:59:39;;;;;;;2.72;1.05;;;;;;;13.65;78.69;99280.28;10493152;28;20051;-77
2023/09/22 21:04:42;;;;;;;3.38;1.10;;;;;;;13.61;79.35;99276.25;10479152;28;20059;-76
2023/09/22 21:09:46;;;;;;;3.35;0.98;;;;;;;13.61;79.26;99270.88;10467434;28;20044;-77
2023/09/22 21:14:50;;;;;;;3.67;0.80;;;;;;;13.56;79.60;99284.84;10481024;28;20809;-77
2023/09/22 21:19:54;;;;;;;2.83;0.95;;;;;;;13.47;79.38;99285.88;10461768;28;20056;-77
2023/09/22 21:24:59;;;;;;;1.10;1.00;;;;;;;13.41;79.73;99289.22;10458242;28;20049;-78
2023/09/22 21:30:02;;;;;;;4.50;1.10;;;;;;;13.47;80.44;99296.69;10459349;28;20052;-77
2023/09/22 21:35:06;;;;;;;0.70;0.68;;;;;;;13.48;80.42;99301.03;10451572;28;20056;-78
2023/09/22 21:40:12;;;;;;;3.17;1.00;;;;;;;13.43;80.27;99300.72;10460044;28;20055;-77
2023/09/22 21:45:15;;;;;;;1.50;0.98;;;;;;;13.49;81.06;99305.41;10455839;28;20143;-77
2023/09/22 21:50:18;;;;;;;3.15;1.00;;;;;;;13.60;80.63;99312.31;10461236;28;20797;-77
2023/09/22 21:55:23;;;;;;;2.97;0.85;;;;;;;13.60;79.98;99323.13;10454747;28;20059;-77
2023/09/22 22:00:27;;;;;;;4.38;1.13;;;;;;;13.58;79.36;99314.38;10462567;28;20055;-76
2023/09/22 22:05:30;;;;;;;3.20;0.90;;;;;;;13.58;77.98;99319.78;10452563;28;20136;-77
2023/09/22 22:10:35;;;;;;;0.40;0.40;;;;;;;13.38;77.64;99319.25;10455065;28;20041;-77
2023/09/22 22:15:39;;;;;;;0.90;0.60;;;;;;;13.28;78.19;99333.72;10450785;28;20056;-77
2023/09/22 22:20:42;;;;;;;1.77;0.77;;;;;;;13.22;78.53;99326.31;10430475;28;20045;-77
2023/09/22 22:25:46;;;;;;;1.48;0.93;;;;;;;13.12;79.30;99344.47;10455908;28;20290;-77
2023/09/22 22:30:49;;;;;;;2.17;1.08;;;;;;;12.93;80.23;99336.69;10449424;28;20059;-77
2023/09/22 22:35:53;;;;;;;0.82;0.70;;;;;;;12.73;81.53;99346.94;10445905;28;21255;-77
2023/09/22 22:40:57;;;;;;;2.67;0.80;;;;;;;12.73;81.61;99342.38;10438346;28;20052;-77
2023/09/22 22:46:04;;;;;;;7.03;1.60;;;;;;;12.82;81.46;99348.63;10451676;28;20067;-76
2023/09/22 22:51:07;;;;;;;2.22;0.93;;;;;;;12.82;81.78;99348.63;10442327;28;20052;-76
2023/09/22 22:56:12;;;;;;;1.90;0.80;;;;;;;12.91;81.26;99360.28;10434711;28;20059;-76
2023/09/22 23:01:16;;;;;;;2.17;1.10;;;;;;;12.71;81.85;99365.09;10437876;28;20053;-76
2023/09/22 23:06:20;;;;;;;0.90;0.77;;;;;;;12.49;83.23;99364.66;10437332;28;20056;-76
2023/09/22 23:11:25;;;;;;;1.40;0.75;;;;;;;12.79;81.81;99355.19;10444870;28;20040;-76
2023/09/22 23:16:28;;;;;;;3.05;1.35;;;;;;;12.59;83.05;99373.47;10444336;28;20145;-76
2023/09/22 23:21:32;;;;;;;1.65;0.90;;;;;;;12.51;83.67;99378.81;10436544;28;20056;-76
2023/09/22 23:26:36;;;;;;;2.35;1.30;;;;;;;12.60;82.88;99391.31;10425198;28;20416;-75
2023/09/22 23:31:40;;;;;;;1.98;1.08;;;;;;;12.84;82.33;99381.66;10444061;28;20527;-75